createdAt,value
2023-05-05T00:01:04.944Z,226.77
2023-05-05T00:03:38.348Z,211.05
2023-05-05T00:06:08.865Z,234.55
2023-05-05T00:11:08.710Z,221.60
2023-05-05T00:13:38.757Z,226.15
2023-05-05T00:16:09.893Z,247.50
2023-05-05T00:18:39.635Z,239.13
2023-05-05T00:21:09.465Z,243.82
2023-05-05T00:23:39.932Z,226.68
2023-05-05T00:26:10.354Z,245.55
2023-05-05T00:28:40.017Z,226.40
2023-05-05T00:31:10.578Z,229.65
2023-05-05T00:33:40.320Z,213.60
2023-05-05T00:36:11.902Z,230.98
2023-05-05T00:38:41.681Z,237.23
2023-05-05T00:41:11.337Z,234.48
2023-05-05T00:43:41.127Z,228.13
2023-05-05T00:46:27.026Z,236.77
2023-05-05T00:48:57.698Z,228.52
2023-05-05T00:51:28.216Z,215.05
2023-05-05T00:53:58.489Z,216.15
2023-05-05T00:56:31.051Z,190.13
2023-05-05T00:59:01.205Z,203.13
2023-05-05T01:01:31.120Z,191.65
2023-05-05T01:04:00.960Z,183.13
2023-05-05T01:06:34.476Z,206.20
2023-05-05T01:09:10.458Z,196.98
2023-05-05T01:11:44.271Z,196.45
2023-05-05T01:14:22.304Z,191.63
2023-05-05T01:16:58.969Z,192.27
2023-05-05T01:19:31.747Z,191.18
2023-05-05T01:22:03.008Z,189.02
2023-05-05T01:24:32.574Z,200.63
2023-05-05T01:27:03.219Z,193.15
2023-05-05T01:29:54.873Z,198.27
2023-05-05T01:32:28.425Z,185.48
2023-05-05T01:35:15.444Z,189.20
2023-05-05T01:37:57.343Z,176.95
2023-05-05T01:40:29.415Z,159.82
2023-05-05T01:42:59.905Z,165.50
2023-05-05T01:45:32.352Z,179.13
2023-05-05T01:48:02.751Z,178.82
2023-05-05T01:50:32.548Z,199.10
2023-05-05T01:53:02.542Z,186.93
2023-05-05T01:55:33.880Z,190.20
2023-05-05T01:58:04.078Z,178.80
2023-05-05T02:00:36.999Z,184.25
2023-05-05T02:03:08.333Z,175.73
2023-05-05T02:05:39.168Z,182.98
2023-05-05T02:08:11.766Z,180.80
2023-05-05T02:10:44.584Z,184.35
2023-05-05T02:13:15.195Z,178.90
2023-05-05T02:15:45.648Z,167.70
2023-05-05T02:18:15.795Z,179.23
2023-05-05T02:23:17.476Z,178.77
2023-05-05T02:25:52.098Z,160.27
2023-05-05T02:28:25.889Z,162.45
2023-05-05T02:30:59.776Z,164.77
2023-05-05T02:33:31.176Z,163.48
2023-05-05T02:36:03.852Z,172.43
2023-05-05T02:38:36.828Z,162.27
2023-05-05T02:41:07.296Z,152.57
2023-05-05T02:43:38.093Z,155.65
2023-05-05T02:46:09.177Z,146.65
2023-05-05T02:48:38.955Z,141.52
2023-05-05T02:51:09.330Z,145.48
2023-05-05T02:53:39.466Z,138.45
2023-05-05T02:58:42.625Z,148.07
2023-05-05T03:01:30.911Z,151.85
2023-05-05T03:04:14.629Z,140.60
2023-05-05T03:06:45.370Z,152.43
2023-05-05T03:09:24.373Z,153.20
2023-05-05T03:11:58.130Z,146.68
2023-05-05T03:14:32.114Z,155.15
2023-05-05T03:17:04.218Z,149.98
2023-05-05T03:19:34.436Z,148.20
2023-05-05T03:22:06.174Z,147.73
2023-05-05T03:24:36.045Z,146.60
2023-05-05T03:27:05.970Z,144.00
2023-05-05T03:29:36.379Z,136.75
2023-05-05T03:32:06.319Z,134.07
2023-05-05T03:37:07.416Z,167.55
2023-05-05T03:39:37.819Z,158.73
2023-05-05T03:42:07.690Z,151.20
2023-05-05T03:44:37.670Z,144.40
2023-05-05T03:47:10.830Z,141.68
2023-05-05T03:49:40.486Z,138.85
2023-05-05T03:52:10.218Z,143.50
2023-05-05T03:54:39.807Z,131.25
2023-05-05T03:57:09.654Z,128.68
2023-05-05T03:59:39.264Z,137.15
2023-05-05T04:02:09.031Z,139.32
2023-05-05T04:04:38.812Z,131.27
2023-05-05T04:07:08.422Z,120.25
2023-05-05T04:09:38.313Z,132.93
2023-05-05T04:12:08.268Z,130.27
2023-05-05T04:17:07.914Z,125.63
2023-05-05T04:19:37.697Z,125.20
2023-05-05T04:22:07.396Z,114.38
2023-05-05T04:24:37.328Z,93.00
2023-05-05T04:29:37.959Z,84.55
2023-05-05T04:32:08.105Z,89.35
2023-05-05T04:34:37.860Z,79.68
2023-05-05T04:37:07.786Z,71.75
2023-05-05T04:42:06.939Z,81.32
2023-05-05T04:47:06.098Z,89.22
2023-05-05T04:49:35.783Z,73.43
2023-05-05T04:52:05.534Z,73.97
2023-05-05T04:54:38.662Z,79.38
2023-05-05T04:57:08.883Z,84.22
2023-05-05T04:59:40.539Z,84.35
2023-05-05T05:02:10.437Z,72.25
2023-05-05T05:07:10.599Z,76.47
2023-05-05T05:09:40.445Z,70.82
2023-05-05T05:12:11.509Z,73.90
2023-05-05T05:14:41.912Z,87.18
2023-05-05T05:17:11.870Z,72.00
2023-05-05T05:22:13.612Z,67.30
2023-05-05T05:24:44.000Z,82.78
2023-05-05T05:27:14.873Z,50.75
2023-05-05T05:29:45.359Z,62.10
2023-05-05T05:32:15.906Z,62.17
2023-05-05T05:34:46.083Z,59.22
2023-05-05T05:37:15.922Z,66.88
2023-05-05T05:39:46.110Z,53.40
2023-05-05T05:42:16.097Z,41.55
2023-05-05T05:44:46.262Z,28.58
2023-05-05T05:47:16.804Z,33.83
2023-05-05T05:49:47.959Z,33.78
2023-05-05T05:52:18.079Z,44.88
2023-05-05T05:54:47.895Z,28.33
2023-05-05T05:57:17.731Z,31.13
2023-05-05T05:59:51.355Z,26.42
2023-05-05T06:02:25.101Z,34.08
2023-05-05T06:04:55.259Z,26.88
2023-05-05T06:07:25.287Z,27.60
2023-05-05T06:09:55.421Z,34.35
2023-05-05T06:12:25.497Z,24.70
2023-05-05T06:14:56.816Z,30.15
2023-05-05T06:17:26.931Z,32.70
2023-05-05T06:19:56.738Z,26.98
2023-05-05T06:24:55.911Z,21.73
2023-05-05T06:27:25.970Z,18.88
2023-05-05T06:29:56.112Z,28.08
2023-05-05T06:32:30.059Z,18.33
2023-05-05T06:35:00.097Z,16.17
2023-05-05T06:37:29.900Z,35.85
2023-05-05T06:42:33.766Z,14.82
2023-05-05T06:45:06.883Z,14.80
2023-05-05T06:47:37.504Z,11.93
2023-05-05T06:50:07.916Z,17.58
2023-05-05T06:52:37.948Z,15.60
2023-05-05T06:57:37.668Z,20.17
2023-05-05T07:00:11.335Z,12.15
2023-05-05T07:02:41.456Z,19.80
2023-05-05T07:05:12.131Z,11.77
2023-05-05T07:07:43.805Z,16.70
2023-05-05T07:10:13.748Z,12.82
2023-05-05T07:12:43.958Z,17.27
2023-05-05T07:15:26.788Z,12.75
2023-05-05T07:17:57.782Z,15.13
2023-05-05T07:20:28.887Z,17.20
2023-05-05T07:22:59.163Z,15.88
2023-05-05T07:25:29.159Z,14.82
2023-05-05T07:27:59.034Z,16.75
2023-05-05T07:32:58.553Z,15.43
2023-05-05T07:35:31.680Z,17.08
2023-05-05T07:38:02.621Z,11.88
2023-05-05T07:40:33.689Z,15.07
2023-05-05T07:43:04.055Z,16.13
2023-05-05T07:45:35.097Z,24.20
2023-05-05T07:48:05.139Z,13.65
2023-05-05T07:50:35.236Z,17.02
2023-05-05T07:53:13.871Z,16.13
2023-05-05T07:55:45.345Z,15.02
2023-05-05T08:00:45.638Z,17.80
2023-05-05T08:03:15.775Z,25.77
2023-05-05T08:05:45.639Z,11.63
2023-05-05T08:10:47.515Z,18.35
2023-05-05T08:13:17.572Z,22.55
2023-05-05T08:15:47.807Z,15.43
2023-05-05T08:18:17.827Z,17.88
2023-05-05T08:20:48.333Z,14.13
2023-05-05T08:23:18.544Z,16.40
2023-05-05T08:25:48.477Z,13.93
2023-05-05T08:28:18.426Z,14.70
2023-05-05T08:30:48.650Z,14.18
2023-05-05T08:33:18.628Z,10.50
2023-05-05T08:35:48.939Z,20.83
2023-05-05T08:38:20.628Z,17.23
2023-05-05T08:40:50.919Z,23.23
2023-05-05T08:43:25.395Z,11.98
2023-05-05T08:45:56.031Z,20.05
2023-05-05T08:48:26.234Z,22.88
2023-05-05T08:51:00.825Z,14.90
2023-05-05T08:53:47.519Z,18.02
2023-05-05T08:56:17.792Z,18.20
2023-05-05T08:58:48.764Z,21.92
2023-05-05T09:01:21.993Z,13.60
2023-05-05T09:03:52.689Z,15.10
2023-05-05T09:06:28.157Z,13.35
2023-05-05T09:08:59.663Z,12.15
2023-05-05T09:11:30.085Z,17.20
2023-05-05T09:14:00.149Z,12.93
2023-05-05T09:16:31.365Z,14.60
2023-05-05T09:19:06.783Z,10.88
2023-05-05T09:21:37.085Z,15.52
2023-05-05T09:24:09.697Z,14.15
2023-05-05T09:26:41.702Z,11.18
2023-05-05T09:29:11.933Z,15.63
2023-05-05T09:31:42.153Z,19.83
2023-05-05T09:34:19.002Z,15.38
2023-05-05T09:36:50.041Z,15.93
2023-05-05T09:39:20.767Z,18.77
2023-05-05T09:41:53.090Z,12.23
2023-05-05T09:44:39.847Z,15.95
2023-05-05T09:47:22.128Z,22.50
2023-05-05T09:50:01.859Z,13.50
2023-05-05T09:52:32.219Z,17.25
2023-05-05T09:55:02.944Z,17.67
2023-05-05T09:57:38.903Z,18.17
2023-05-05T10:00:09.773Z,14.65
2023-05-05T10:02:42.253Z,16.52
2023-05-05T10:05:20.071Z,21.00
2023-05-05T10:07:51.113Z,17.17
2023-05-05T10:10:22.083Z,17.25
2023-05-05T10:12:53.244Z,16.33
2023-05-05T10:15:23.831Z,13.68
2023-05-05T10:18:05.828Z,17.52
2023-05-05T10:20:39.367Z,17.55
2023-05-05T10:23:11.586Z,18.50
2023-05-05T10:25:53.646Z,19.23
2023-05-05T10:28:32.320Z,14.60
2023-05-05T10:31:10.060Z,13.85
2023-05-05T10:33:58.910Z,15.82
2023-05-05T10:36:31.729Z,19.77
2023-05-05T10:39:11.539Z,13.40
2023-05-05T10:44:12.578Z,15.88
2023-05-05T10:46:43.048Z,22.63
2023-05-05T10:49:13.538Z,18.10
2023-05-05T10:51:49.700Z,16.13
2023-05-05T10:54:37.846Z,13.35
2023-05-05T10:57:09.764Z,17.40
2023-05-05T10:59:39.938Z,20.42
2023-05-05T11:02:22.978Z,14.50
2023-05-05T11:05:08.788Z,19.02
2023-05-05T11:07:39.591Z,27.27
2023-05-05T11:10:11.943Z,19.27
2023-05-05T11:13:00.833Z,27.25
2023-05-05T11:18:38.354Z,18.98
2023-05-05T11:21:16.838Z,18.75
2023-05-05T11:23:48.095Z,14.90
2023-05-05T11:26:18.691Z,15.80
2023-05-05T11:29:08.736Z,11.77
2023-05-05T11:31:38.859Z,16.35
2023-05-05T11:34:31.737Z,18.13
2023-05-05T11:37:05.454Z,16.27
2023-05-05T11:39:38.812Z,21.20
2023-05-05T11:42:19.348Z,16.58
2023-05-05T11:44:49.724Z,16.15
2023-05-05T11:47:19.465Z,15.27
2023-05-05T11:49:49.656Z,17.75
2023-05-05T11:52:20.114Z,24.17
2023-05-05T11:54:52.004Z,21.95
2023-05-05T11:57:26.540Z,19.63
2023-05-05T11:59:56.454Z,16.25
2023-05-05T12:04:56.022Z,20.52
2023-05-05T12:07:27.601Z,18.52
2023-05-05T12:09:58.369Z,19.05
2023-05-05T12:12:38.879Z,18.60
2023-05-05T12:15:09.912Z,28.38
2023-05-05T12:17:47.664Z,19.38
2023-05-05T12:20:17.564Z,18.58
2023-05-05T12:25:16.458Z,27.67
2023-05-05T12:27:54.808Z,32.13
2023-05-05T12:30:25.553Z,27.00
2023-05-05T12:33:04.539Z,20.15
2023-05-05T12:35:35.086Z,23.10
2023-05-05T12:38:05.614Z,19.70
2023-05-05T12:40:57.507Z,27.63
2023-05-05T12:43:28.184Z,30.20
2023-05-05T12:46:05.079Z,26.05
2023-05-05T12:48:35.373Z,19.85
2023-05-05T12:51:17.235Z,29.02
2023-05-05T12:53:49.739Z,31.35
2023-05-05T12:56:37.949Z,32.50
2023-05-05T12:59:09.632Z,38.53
2023-05-05T13:01:40.246Z,28.60
2023-05-05T13:04:12.332Z,31.60
2023-05-05T13:06:46.170Z,21.83
2023-05-05T13:09:37.767Z,19.40
2023-05-05T13:12:09.893Z,23.00
2023-05-05T13:14:40.949Z,19.98
2023-05-05T13:17:11.188Z,27.15
2023-05-05T13:19:47.555Z,26.73
2023-05-05T13:22:17.818Z,20.33
2023-05-05T13:24:52.261Z,33.92
2023-05-05T13:27:24.181Z,31.15
2023-05-05T13:29:55.098Z,22.58
2023-05-05T13:32:29.620Z,30.63
2023-05-05T13:34:59.775Z,40.15
2023-05-05T13:37:30.000Z,29.77
2023-05-05T13:40:01.863Z,32.22
2023-05-05T13:42:32.145Z,38.10
2023-05-05T13:45:02.542Z,32.85
2023-05-05T13:47:32.842Z,38.78
2023-05-05T13:50:03.464Z,39.92
2023-05-05T13:52:34.268Z,50.88
2023-05-05T13:55:04.857Z,43.38
2023-05-05T13:57:34.774Z,31.42
2023-05-05T14:00:06.029Z,54.33
2023-05-05T14:02:36.509Z,42.17
2023-05-05T14:05:08.195Z,39.03
2023-05-05T14:07:40.665Z,38.60
2023-05-05T14:10:10.915Z,42.03
2023-05-05T14:12:44.541Z,53.80
2023-05-05T14:15:14.635Z,53.83
2023-05-05T14:20:15.639Z,34.10
2023-05-05T14:22:47.093Z,44.63
2023-05-05T14:25:19.548Z,36.50
2023-05-05T14:27:49.800Z,34.00
2023-05-05T14:30:20.207Z,45.63
2023-05-05T14:32:50.603Z,36.75
2023-05-05T14:35:20.910Z,53.83
2023-05-05T14:37:51.089Z,46.20
2023-05-05T14:40:21.312Z,53.28
2023-05-05T14:42:53.713Z,54.60
2023-05-05T14:45:23.611Z,54.45
2023-05-05T14:47:53.815Z,51.72
2023-05-05T14:50:24.196Z,58.83
2023-05-05T14:52:54.368Z,57.05
2023-05-05T14:55:24.206Z,56.30
2023-05-05T14:57:54.992Z,46.55
2023-05-05T15:00:29.168Z,47.75
2023-05-05T15:02:59.052Z,50.28
2023-05-05T15:05:28.784Z,36.30
2023-05-05T15:07:58.648Z,49.85
2023-05-05T15:10:38.592Z,49.13
2023-05-05T15:13:08.710Z,48.22
2023-05-05T15:18:10.117Z,49.00
2023-05-05T15:20:40.271Z,52.53
2023-05-05T15:23:10.137Z,48.63
2023-05-05T15:25:40.130Z,56.25
2023-05-05T15:28:13.578Z,58.28
2023-05-05T15:30:44.912Z,46.30
2023-05-05T15:33:15.462Z,44.03
2023-05-05T15:35:46.075Z,45.78
2023-05-05T15:38:16.396Z,43.40
2023-05-05T15:40:50.293Z,51.65
2023-05-05T15:43:20.272Z,38.08
2023-05-05T15:45:50.443Z,41.30
2023-05-05T15:50:49.638Z,43.65
2023-05-05T15:56:39.543Z,43.35
2023-05-05T15:59:09.645Z,50.08
2023-05-05T16:01:39.856Z,42.15
2023-05-05T16:04:10.944Z,41.65
2023-05-05T16:06:42.630Z,50.90
2023-05-05T16:09:12.396Z,45.38
2023-05-05T16:11:46.449Z,47.92
2023-05-05T16:14:17.087Z,55.85
2023-05-05T16:16:46.889Z,68.63
2023-05-05T16:19:17.490Z,54.97
2023-05-05T16:21:47.796Z,56.10
2023-05-05T16:24:18.205Z,58.10
2023-05-05T16:26:48.391Z,67.45
2023-05-05T16:31:48.339Z,51.88
2023-05-05T16:34:18.685Z,60.83
2023-05-05T16:36:49.374Z,66.78
2023-05-05T16:39:19.856Z,75.57
2023-05-05T16:41:50.109Z,62.75
2023-05-05T16:44:23.384Z,72.88
2023-05-05T16:46:53.293Z,49.85
2023-05-05T16:49:25.682Z,79.72
2023-05-05T16:51:55.620Z,62.95
2023-05-05T16:54:26.098Z,68.20
2023-05-05T16:56:56.479Z,71.50
2023-05-05T16:59:26.334Z,49.42
2023-05-05T17:01:57.317Z,58.67
2023-05-05T17:04:27.731Z,62.50
2023-05-05T17:06:59.103Z,51.00
2023-05-05T17:09:29.112Z,68.88
2023-05-05T17:12:00.375Z,50.15
2023-05-05T17:14:34.120Z,44.42
2023-05-05T17:17:03.996Z,55.03
2023-05-05T17:19:34.367Z,49.80
2023-05-05T17:22:04.011Z,43.15
2023-05-05T17:24:33.967Z,43.53
2023-05-05T17:27:04.827Z,38.63
2023-05-05T17:29:38.332Z,44.03
2023-05-05T17:32:08.097Z,39.05
2023-05-05T17:34:38.504Z,41.50
2023-05-05T17:37:09.365Z,37.92
2023-05-05T17:39:39.267Z,41.03
2023-05-05T17:42:10.122Z,51.55
2023-05-05T17:47:10.049Z,48.88
2023-05-05T17:49:39.851Z,43.88
2023-05-05T17:52:09.665Z,42.05
2023-05-05T17:54:39.613Z,49.50
2023-05-05T17:57:11.354Z,49.53
2023-05-05T17:59:43.205Z,53.15
2023-05-05T18:02:13.382Z,49.80
2023-05-05T18:04:43.560Z,46.85
2023-05-05T18:07:13.882Z,42.60
2023-05-05T18:09:45.439Z,52.03
2023-05-05T18:12:15.115Z,42.88
2023-05-05T18:14:46.376Z,47.72
2023-05-05T18:17:16.470Z,45.65
2023-05-05T18:19:49.059Z,50.80
2023-05-05T18:22:19.654Z,43.47
2023-05-05T18:27:20.466Z,49.92
2023-05-05T18:29:50.177Z,46.10
2023-05-05T18:32:21.439Z,50.28
2023-05-05T18:34:51.078Z,46.50
2023-05-05T18:37:20.765Z,47.15
2023-05-05T18:39:50.796Z,43.08
2023-05-05T18:42:20.543Z,43.58
2023-05-05T18:44:50.265Z,43.40
2023-05-05T18:47:20.004Z,50.05
2023-05-05T18:49:49.938Z,39.92
2023-05-05T18:52:19.569Z,43.80
2023-05-05T18:54:49.374Z,37.85
2023-05-05T18:57:19.066Z,42.40
2023-05-05T18:59:49.827Z,43.20
2023-05-05T19:02:19.718Z,44.53
2023-05-05T19:04:49.517Z,44.97
2023-05-05T19:10:09.464Z,40.20
2023-05-05T19:12:39.304Z,44.53
2023-05-05T19:15:10.113Z,41.15
2023-05-05T19:17:41.213Z,46.97
2023-05-05T19:20:11.063Z,48.08
2023-05-05T19:22:41.711Z,56.15
2023-05-05T19:25:11.876Z,51.55
2023-05-05T19:27:41.666Z,52.92
2023-05-05T19:30:12.030Z,58.70
2023-05-05T19:35:12.023Z,50.22
2023-05-05T19:37:41.993Z,49.63
2023-05-05T19:40:12.342Z,60.13
2023-05-05T19:42:42.418Z,53.15
2023-05-05T19:45:12.423Z,59.13
2023-05-05T19:47:42.195Z,54.88
2023-05-05T19:50:12.508Z,59.28
2023-05-05T19:55:14.612Z,56.60
2023-05-05T19:57:44.383Z,51.50
2023-05-05T20:00:14.771Z,51.55
2023-05-05T20:02:46.803Z,65.88
2023-05-05T20:05:18.729Z,53.70
2023-05-05T20:07:48.746Z,56.13
2023-05-05T20:10:19.420Z,57.00
2023-05-05T20:12:51.299Z,57.55
2023-05-05T20:15:23.252Z,50.38
2023-05-05T20:17:53.122Z,53.47
2023-05-05T20:20:24.152Z,54.22
2023-05-05T20:22:56.542Z,57.90
2023-05-05T20:25:26.319Z,54.78
2023-05-05T20:27:57.050Z,59.47
2023-05-05T20:30:26.753Z,57.63
2023-05-05T20:32:56.583Z,52.45
2023-05-05T20:35:27.246Z,59.08
2023-05-05T20:37:58.724Z,65.53
2023-05-05T20:40:31.112Z,59.95
2023-05-05T20:43:00.809Z,59.58
2023-05-05T20:45:33.291Z,65.53
2023-05-05T20:48:03.445Z,62.38
2023-05-05T20:50:34.049Z,63.45
2023-05-05T20:53:03.724Z,58.95
2023-05-05T20:55:34.047Z,59.30
2023-05-05T20:58:03.828Z,57.63
2023-05-05T21:00:33.510Z,53.90
2023-05-05T21:03:04.399Z,60.80
2023-05-05T21:05:34.239Z,58.50
2023-05-05T21:08:03.940Z,59.88
2023-05-05T21:10:36.583Z,56.90
2023-05-05T21:13:06.415Z,55.58
2023-05-05T21:15:38.851Z,54.33
2023-05-05T21:18:09.084Z,57.35
2023-05-05T21:23:07.955Z,55.67
2023-05-05T21:25:40.242Z,51.33
2023-05-05T21:28:10.060Z,54.88
2023-05-05T21:30:39.917Z,51.47
2023-05-05T21:33:09.758Z,65.63
2023-05-05T21:35:39.484Z,57.13
2023-05-05T21:38:13.829Z,54.47
2023-05-05T21:40:43.662Z,47.88
2023-05-05T21:43:13.448Z,56.80
2023-05-05T21:45:45.049Z,56.17
2023-05-05T21:48:14.718Z,56.88
2023-05-05T21:50:44.618Z,52.40
2023-05-05T21:53:15.288Z,61.20
2023-05-05T21:55:45.005Z,52.50
2023-05-05T21:58:14.646Z,52.70
2023-05-05T22:00:44.653Z,54.67
2023-05-05T22:03:14.393Z,59.42
2023-05-05T22:05:45.200Z,55.88
2023-05-05T22:08:14.791Z,57.35
2023-05-05T22:10:46.430Z,50.60
2023-05-05T22:13:16.397Z,50.00
2023-05-05T22:15:49.200Z,48.38
2023-05-05T22:18:19.011Z,50.92
2023-05-05T22:20:49.540Z,42.90
2023-05-05T22:23:19.338Z,49.03
2023-05-05T22:25:49.265Z,43.20
2023-05-05T22:28:21.377Z,38.28
2023-05-05T22:30:51.022Z,49.28
2023-05-05T22:33:20.781Z,39.03
2023-05-05T22:35:50.416Z,53.03
2023-05-05T22:38:20.195Z,42.90
2023-05-05T22:40:50.608Z,45.78
2023-05-05T22:45:49.995Z,43.60
2023-05-05T22:48:19.639Z,46.97
2023-05-05T22:50:50.542Z,44.40
2023-05-05T22:53:20.212Z,48.47
2023-05-05T22:55:49.945Z,45.88
2023-05-05T22:58:19.976Z,43.55
2023-05-05T23:00:49.612Z,51.47
2023-05-05T23:03:19.370Z,53.00
2023-05-05T23:05:49.032Z,50.88
2023-05-05T23:08:19.298Z,55.22
2023-05-05T23:13:20.994Z,56.47
2023-05-05T23:15:51.717Z,55.28
2023-05-05T23:18:23.237Z,64.35
2023-05-05T23:20:53.600Z,62.97
2023-05-05T23:23:23.252Z,75.95
2023-05-05T23:25:54.793Z,69.90
2023-05-05T23:28:24.615Z,80.28
2023-05-05T23:30:54.964Z,72.20
2023-05-05T23:35:55.715Z,78.13
2023-05-05T23:38:25.490Z,76.75
2023-05-05T23:40:55.279Z,77.70
2023-05-05T23:43:25.036Z,81.30
2023-05-05T23:45:54.812Z,95.30
2023-05-05T23:48:24.675Z,77.88
2023-05-05T23:50:55.916Z,85.80
2023-05-05T23:53:25.613Z,70.40
2023-05-05T23:55:56.300Z,74.28
2023-05-05T23:58:26.878Z,102.28
